createdAt,value
2023-05-11T00:00:33.988Z,100374.70
2023-05-11T00:03:06.763Z,100375.41
2023-05-11T00:05:39.113Z,100368.52
2023-05-11T00:08:11.295Z,100376.52
2023-05-11T00:10:43.747Z,100370.53
2023-05-11T00:13:16.120Z,100373.17
2023-05-11T00:15:48.481Z,100374.03
2023-05-11T00:18:20.781Z,100374.98
2023-05-11T00:20:53.098Z,100375.06
2023-05-11T00:23:25.696Z,100365.45
2023-05-11T00:25:57.969Z,100370.73
2023-05-11T00:28:29.983Z,100377.61
2023-05-11T00:31:02.025Z,100374.11
2023-05-11T00:33:34.189Z,100372.42
2023-05-11T00:36:08.116Z,100369.86
2023-05-11T00:38:43.505Z,100372.50
2023-05-11T00:41:16.045Z,100371.67
2023-05-11T00:43:48.276Z,100375.30
2023-05-11T00:46:20.894Z,100374.47
2023-05-11T00:48:53.262Z,100374.62
2023-05-11T00:51:26.550Z,100376.41
2023-05-11T00:53:59.475Z,100376.52
2023-05-11T00:56:33.007Z,100380.06
2023-05-11T00:59:05.361Z,100376.52
2023-05-11T01:01:39.091Z,100375.73
2023-05-11T01:04:12.817Z,100380.34
2023-05-11T01:07:11.994Z,100388.33
2023-05-11T01:09:59.280Z,100377.94
2023-05-11T01:12:34.879Z,100389.59
2023-05-11T01:15:13.654Z,100392.50
2023-05-11T01:18:00.700Z,100390.09
2023-05-11T01:20:33.385Z,100389.42
2023-05-11T01:23:12.005Z,100384.38
2023-05-11T01:26:14.063Z,100384.53
2023-05-11T01:29:17.792Z,100389.73
2023-05-11T01:31:51.752Z,100389.73
2023-05-11T01:34:27.019Z,100385.25
2023-05-11T01:37:04.823Z,100387.88
2023-05-11T01:39:45.484Z,100381.74
2023-05-11T01:42:20.541Z,100383.63
2023-05-11T01:44:56.088Z,100388.98
2023-05-11T01:47:30.667Z,100391.69
2023-05-11T01:50:07.725Z,100388.19
2023-05-11T01:52:42.562Z,100392.64
2023-05-11T01:55:17.920Z,100390.00
2023-05-11T01:57:54.382Z,100390.75
2023-05-11T02:00:26.962Z,100386.34
2023-05-11T02:03:02.701Z,100391.35
2023-05-11T02:05:35.920Z,100386.94
2023-05-11T02:08:09.622Z,100387.88
2023-05-11T02:10:43.543Z,100391.35
2023-05-11T02:13:17.949Z,100366.31
2023-05-11T02:15:53.884Z,100389.42
2023-05-11T02:18:26.350Z,100391.95
2023-05-11T02:21:02.756Z,100395.45
2023-05-11T02:23:35.716Z,100399.70
2023-05-11T02:26:09.376Z,100396.05
2023-05-11T02:28:41.952Z,100390.61
2023-05-11T02:31:23.034Z,100389.59
2023-05-11T02:33:58.386Z,100398.09
2023-05-11T02:36:32.084Z,100396.24
2023-05-11T02:39:12.252Z,100397.70
2023-05-11T02:41:47.361Z,100393.88
2023-05-11T02:44:21.446Z,100390.97
2023-05-11T02:46:56.112Z,100394.20
2023-05-11T02:49:31.391Z,100393.17
2023-05-11T02:52:06.314Z,100394.70
2023-05-11T02:54:41.592Z,100401.35
2023-05-11T02:57:14.664Z,100401.19
2023-05-11T02:59:47.623Z,100404.41
2023-05-11T03:02:20.192Z,100402.27
2023-05-11T03:04:52.970Z,100403.72
2023-05-11T03:07:25.205Z,100403.39
2023-05-11T03:09:57.621Z,100400.47
2023-05-11T03:12:31.793Z,100408.97
2023-05-11T03:15:05.793Z,100404.30
2023-05-11T03:17:38.051Z,100409.22
2023-05-11T03:20:12.537Z,100404.43
2023-05-11T03:22:46.365Z,100412.88
2023-05-11T03:25:19.508Z,100416.79
2023-05-11T03:27:53.916Z,100418.11
2023-05-11T03:30:28.802Z,100423.05
2023-05-11T03:33:01.426Z,100421.76
2023-05-11T03:35:36.254Z,100414.40
2023-05-11T03:38:10.993Z,100411.38
2023-05-11T03:40:45.078Z,100409.22
2023-05-11T03:43:19.480Z,100416.80
2023-05-11T03:45:54.464Z,100406.61
2023-05-11T03:48:27.060Z,100420.95
2023-05-11T03:50:59.704Z,100422.02
2023-05-11T03:53:32.542Z,100415.11
2023-05-11T03:56:07.553Z,100417.00
2023-05-11T03:58:41.737Z,100423.34
2023-05-11T04:01:14.990Z,100427.13
2023-05-11T04:03:52.267Z,100439.88
2023-05-11T04:06:26.043Z,100429.19
2023-05-11T04:08:59.852Z,100439.84
2023-05-11T04:11:32.333Z,100442.94
2023-05-11T04:14:05.389Z,100436.50
2023-05-11T04:16:38.449Z,100413.94
2023-05-11T04:19:11.166Z,100439.41
2023-05-11T04:21:43.408Z,100437.44
2023-05-11T04:24:15.965Z,100441.36
2023-05-11T04:26:48.884Z,100447.55
2023-05-11T04:29:21.636Z,100416.08
2023-05-11T04:31:55.331Z,100419.81
2023-05-11T04:34:29.079Z,100419.81
2023-05-11T04:37:03.412Z,100441.11
2023-05-11T04:39:36.402Z,100437.97
2023-05-11T04:42:09.006Z,100442.02
2023-05-11T04:44:42.421Z,100433.13
2023-05-11T04:47:15.925Z,100429.00
2023-05-11T04:49:48.536Z,100429.00
2023-05-11T04:52:21.439Z,100433.00
2023-05-11T04:54:55.051Z,100436.19
2023-05-11T04:57:28.693Z,100421.28
2023-05-11T05:00:02.184Z,100439.18
2023-05-11T05:02:35.554Z,100432.62
2023-05-11T05:05:08.299Z,100438.66
2023-05-11T05:07:40.971Z,100427.37
2023-05-11T05:10:13.657Z,100433.88
2023-05-11T05:12:46.997Z,100431.13
2023-05-11T05:15:19.819Z,100431.27
2023-05-11T05:17:52.384Z,100426.33
2023-05-11T05:20:26.010Z,100429.24
2023-05-11T05:22:59.204Z,100419.71
2023-05-11T05:25:31.608Z,100423.34
2023-05-11T05:28:04.481Z,100432.17
2023-05-11T05:30:37.371Z,100429.55
2023-05-11T05:33:10.023Z,100423.37
2023-05-11T05:35:44.136Z,100427.13
2023-05-11T05:38:16.445Z,100431.48
2023-05-11T05:40:48.712Z,100423.14
2023-05-11T05:43:21.001Z,100422.16
2023-05-11T05:45:53.427Z,100432.82
2023-05-11T05:48:25.848Z,100431.95
2023-05-11T05:51:00.470Z,100429.64
2023-05-11T05:53:33.094Z,100427.09
2023-05-11T05:56:05.757Z,100428.42
2023-05-11T05:58:38.075Z,100422.86
2023-05-11T06:01:10.352Z,100428.82
2023-05-11T06:03:45.433Z,100430.54
2023-05-11T06:06:17.876Z,100428.34
2023-05-11T06:08:50.064Z,100431.44
2023-05-11T06:11:22.953Z,100430.22
2023-05-11T06:13:56.146Z,100434.31
2023-05-11T06:16:29.284Z,100435.55
2023-05-11T06:19:03.984Z,100434.10
2023-05-11T06:21:36.565Z,100432.17
2023-05-11T06:24:09.544Z,100446.28
2023-05-11T06:26:42.694Z,100436.46
2023-05-11T06:29:15.374Z,100441.05
2023-05-11T06:31:50.839Z,100441.59
2023-05-11T06:34:23.836Z,100439.84
2023-05-11T06:36:56.247Z,100446.02
2023-05-11T06:39:28.538Z,100437.50
2023-05-11T06:42:03.577Z,100437.86
2023-05-11T06:44:34.595Z,100440.22
2023-05-11T06:47:09.358Z,100435.36
2023-05-11T06:49:43.445Z,100434.84
2023-05-11T06:52:16.064Z,100434.02
2023-05-11T06:54:48.801Z,100435.15
2023-05-11T06:57:21.693Z,100434.28
2023-05-11T06:59:54.166Z,100430.83
2023-05-11T07:02:27.153Z,100425.45
2023-05-11T07:04:59.618Z,100425.20
2023-05-11T07:07:33.450Z,100431.84
2023-05-11T07:10:06.514Z,100427.91
2023-05-11T07:12:39.201Z,100432.80
2023-05-11T07:15:12.767Z,100435.47
2023-05-11T07:17:46.983Z,100437.77
2023-05-11T07:20:20.000Z,100433.78
2023-05-11T07:22:52.687Z,100433.72
2023-05-11T07:25:25.157Z,100423.02
2023-05-11T07:27:57.401Z,100425.88
2023-05-11T07:30:29.986Z,100421.05
2023-05-11T07:33:03.242Z,100420.25
2023-05-11T07:35:36.484Z,100426.25
2023-05-11T07:38:10.772Z,100427.86
2023-05-11T07:40:43.072Z,100431.44
2023-05-11T07:43:16.052Z,100417.89
2023-05-11T07:45:48.551Z,100427.13
2023-05-11T07:48:20.997Z,100422.91
2023-05-11T07:50:53.740Z,100421.14
2023-05-11T07:53:26.401Z,100413.53
2023-05-11T07:56:00.279Z,100409.31
2023-05-11T07:58:33.812Z,100413.45
2023-05-11T08:01:06.414Z,100406.13
2023-05-11T08:03:38.491Z,100400.92
2023-05-11T08:06:10.903Z,100405.44
2023-05-11T08:08:42.926Z,100403.96
2023-05-11T08:11:16.201Z,100402.72
2023-05-11T08:13:49.775Z,100397.09
2023-05-11T08:16:22.433Z,100394.16
2023-05-11T08:18:57.879Z,100387.35
2023-05-11T08:21:31.074Z,100399.08
2023-05-11T08:24:05.450Z,100394.97
2023-05-11T08:26:37.839Z,100390.05
2023-05-11T08:29:12.868Z,100388.53
2023-05-11T08:31:45.603Z,100383.67
2023-05-11T08:34:20.079Z,100385.14
2023-05-11T08:36:53.385Z,100375.46
2023-05-11T08:39:43.664Z,100374.55
2023-05-11T08:42:02.981Z,100385.85
2023-05-11T08:44:38.136Z,100375.81
2023-05-11T08:49:45.943Z,100377.98
2023-05-11T08:52:20.672Z,100377.27
2023-05-11T08:54:53.607Z,100375.59
2023-05-11T08:57:27.689Z,100378.38
2023-05-11T09:00:02.049Z,100382.00
2023-05-11T09:02:36.953Z,100374.34
2023-05-11T09:05:11.221Z,100373.84
2023-05-11T09:07:45.491Z,100379.84
2023-05-11T09:10:18.708Z,100369.34
2023-05-11T09:12:51.182Z,100371.61
2023-05-11T09:15:23.618Z,100370.25
2023-05-11T09:17:56.041Z,100361.06
2023-05-11T09:20:31.868Z,100357.82
2023-05-11T09:23:04.601Z,100361.19
2023-05-11T09:25:39.850Z,100359.76
2023-05-11T09:28:16.885Z,100348.77
2023-05-11T09:30:49.677Z,100365.44
2023-05-11T09:33:26.449Z,100369.99
2023-05-11T09:35:59.780Z,100377.12
2023-05-11T09:38:32.559Z,100378.90
2023-05-11T09:41:05.117Z,100374.83
2023-05-11T09:43:37.813Z,100361.98
2023-05-11T09:46:13.130Z,100365.00
2023-05-11T09:48:45.735Z,100359.09
2023-05-11T09:51:22.073Z,100342.34
2023-05-11T09:53:54.940Z,100340.80
2023-05-11T09:56:46.769Z,100349.44
2023-05-11T09:59:39.201Z,100341.63
2023-05-11T10:02:26.662Z,100337.57
2023-05-11T10:05:01.557Z,100339.66
2023-05-11T10:07:35.431Z,100341.02
2023-05-11T10:10:11.346Z,100338.03
2023-05-11T10:12:43.968Z,100340.16
2023-05-11T10:15:21.606Z,100335.63
2023-05-11T10:17:57.654Z,100329.27
2023-05-11T10:20:30.192Z,100347.22
2023-05-11T10:23:02.606Z,100337.89
2023-05-11T10:25:36.092Z,100335.21
2023-05-11T10:28:08.835Z,100339.66
2023-05-11T10:30:43.179Z,100331.83
2023-05-11T10:33:17.002Z,100326.30
2023-05-11T10:35:52.033Z,100326.52
2023-05-11T10:38:25.787Z,100318.55
2023-05-11T10:41:00.752Z,100323.66
2023-05-11T10:43:44.929Z,100320.27
2023-05-11T10:46:28.185Z,100312.20
2023-05-11T10:49:10.821Z,100313.33
2023-05-11T10:52:01.770Z,100306.14
2023-05-11T10:54:43.002Z,100312.05
2023-05-11T10:57:38.843Z,100312.91
2023-05-11T11:00:16.790Z,100310.38
2023-05-11T11:02:50.019Z,100311.08
2023-05-11T11:05:36.018Z,100305.27
2023-05-11T11:08:09.758Z,100308.46
2023-05-11T11:10:45.798Z,100314.86
2023-05-11T11:13:20.342Z,100324.20
2023-05-11T11:15:56.395Z,100343.81
2023-05-11T11:18:31.255Z,100355.66
2023-05-11T11:21:14.408Z,100379.59
2023-05-11T11:23:52.012Z,100403.16
2023-05-11T11:26:50.622Z,100407.92
2023-05-11T11:29:23.277Z,100417.53
2023-05-11T11:31:57.525Z,100433.33
2023-05-11T11:34:33.303Z,100435.52
2023-05-11T11:37:06.242Z,100420.02
2023-05-11T11:39:50.573Z,100442.78
2023-05-11T11:42:38.104Z,100436.85
2023-05-11T11:45:34.196Z,100441.76
2023-05-11T11:48:15.704Z,100444.10
2023-05-11T11:50:50.051Z,100442.44
2023-05-11T11:53:44.362Z,100435.61
2023-05-11T11:56:19.497Z,100432.61
2023-05-11T11:58:54.563Z,100435.95
2023-05-11T12:01:30.059Z,100431.46
2023-05-11T12:04:20.820Z,100435.02
2023-05-11T12:06:58.995Z,100418.41
2023-05-11T12:09:31.690Z,100405.38
2023-05-11T12:12:05.604Z,100390.77
2023-05-11T12:14:39.309Z,100384.62
2023-05-11T12:17:16.071Z,100379.31
2023-05-11T12:19:49.372Z,100363.22
2023-05-11T12:22:26.049Z,100364.66
2023-05-11T12:25:00.473Z,100354.11
2023-05-11T12:27:33.676Z,100351.63
2023-05-11T12:30:06.733Z,100336.83
2023-05-11T12:32:40.579Z,100343.22
2023-05-11T12:35:13.540Z,100329.97
2023-05-11T12:37:46.546Z,100323.80
2023-05-11T12:40:19.168Z,100318.33
2023-05-11T12:43:00.113Z,100322.82
2023-05-11T12:45:32.567Z,100314.23
2023-05-11T12:48:05.658Z,100310.48
2023-05-11T12:50:48.129Z,100320.47
2023-05-11T12:53:21.254Z,100316.02
2023-05-11T12:56:00.955Z,100309.48
2023-05-11T12:58:41.939Z,100299.46
2023-05-11T13:01:14.304Z,100306.41
2023-05-11T13:03:48.349Z,100302.80
2023-05-11T13:06:21.926Z,100301.03
2023-05-11T13:08:54.338Z,100304.38
2023-05-11T13:11:27.583Z,100298.11
2023-05-11T13:14:00.342Z,100301.13
2023-05-11T13:16:34.167Z,100292.55
2023-05-11T13:19:07.721Z,100294.52
2023-05-11T13:21:39.573Z,100305.22
2023-05-11T13:24:14.740Z,100285.14
2023-05-11T13:26:47.273Z,100296.58
2023-05-11T13:29:20.343Z,100289.92
2023-05-11T13:31:54.300Z,100274.04
2023-05-11T13:34:27.362Z,100279.94
2023-05-11T13:36:59.637Z,100275.56
2023-05-11T13:39:32.149Z,100280.48
2023-05-11T13:42:04.673Z,100271.64
2023-05-11T13:44:37.100Z,100274.13
2023-05-11T13:47:09.306Z,100286.41
2023-05-11T13:49:42.671Z,100273.61
2023-05-11T13:52:15.972Z,100274.31
2023-05-11T13:54:48.851Z,100278.42
2023-05-11T13:57:21.468Z,100277.48
2023-05-11T13:59:54.330Z,100276.34
2023-05-11T14:02:26.986Z,100272.65
2023-05-11T14:04:59.905Z,100273.75
2023-05-11T14:07:46.322Z,100278.97
2023-05-11T14:10:08.425Z,100275.68
2023-05-11T14:12:40.889Z,100274.52
2023-05-11T14:15:13.546Z,100273.25
2023-05-11T14:17:45.877Z,100269.30
2023-05-11T14:20:18.454Z,100259.25
2023-05-11T14:22:51.051Z,100258.59
2023-05-11T14:25:23.335Z,100253.28
2023-05-11T14:27:55.904Z,100261.41
2023-05-11T14:30:28.661Z,100253.77
2023-05-11T14:33:01.182Z,100251.34
2023-05-11T14:35:33.532Z,100245.62
2023-05-11T14:38:05.746Z,100248.44
2023-05-11T14:40:38.296Z,100246.28
2023-05-11T14:43:10.935Z,100245.25
2023-05-11T14:45:43.100Z,100241.95
2023-05-11T14:48:15.204Z,100241.10
2023-05-11T14:50:47.447Z,100239.18
2023-05-11T14:53:19.926Z,100238.08
2023-05-11T14:55:52.912Z,100245.53
2023-05-11T14:58:25.217Z,100237.38
2023-05-11T15:00:57.838Z,100243.25
2023-05-11T15:03:30.254Z,100238.16
2023-05-11T15:06:02.826Z,100233.77
2023-05-11T15:08:34.957Z,100237.48
2023-05-11T15:11:07.961Z,100227.39
2023-05-11T15:13:40.202Z,100224.97
2023-05-11T15:16:13.006Z,100224.51
2023-05-11T15:18:45.659Z,100230.00
2023-05-11T15:21:18.108Z,100245.28
2023-05-11T15:23:50.586Z,100239.98
2023-05-11T15:26:23.688Z,100236.10
2023-05-11T15:28:56.252Z,100239.62
2023-05-11T15:31:32.354Z,100241.55
2023-05-11T15:34:05.449Z,100237.45
2023-05-11T15:36:37.555Z,100243.27
2023-05-11T15:39:10.114Z,100248.35
2023-05-11T15:41:42.560Z,100242.67
2023-05-11T15:44:15.132Z,100249.19
2023-05-11T15:46:47.732Z,100248.34
2023-05-11T15:49:20.207Z,100255.65
2023-05-11T15:51:52.563Z,100248.80
2023-05-11T15:54:24.972Z,100250.25
2023-05-11T15:56:57.483Z,100257.19
2023-05-11T15:59:31.638Z,100264.45
2023-05-11T16:02:04.246Z,100278.45
2023-05-11T16:04:36.666Z,100275.20
2023-05-11T16:07:09.320Z,100273.79
2023-05-11T16:09:41.898Z,100283.58
2023-05-11T16:12:14.993Z,100274.24
2023-05-11T16:14:47.246Z,100281.73
2023-05-11T16:17:19.944Z,100277.44
2023-05-11T16:19:52.282Z,100272.65
2023-05-11T16:22:24.490Z,100270.01
2023-05-11T16:24:57.003Z,100264.72
2023-05-11T16:27:29.813Z,100268.70
2023-05-11T16:30:21.774Z,100262.28
2023-05-11T16:32:36.616Z,100268.21
2023-05-11T16:35:09.102Z,100270.39
2023-05-11T16:37:41.421Z,100268.70
2023-05-11T16:40:14.006Z,100266.27
2023-05-11T16:42:47.049Z,100277.26
2023-05-11T16:45:19.765Z,100281.58
2023-05-11T16:47:52.408Z,100277.42
2023-05-11T16:50:24.896Z,100283.67
2023-05-11T16:52:57.146Z,100286.42
2023-05-11T16:55:31.233Z,100287.23
2023-05-11T16:58:03.890Z,100288.86
2023-05-11T17:00:36.757Z,100290.52
2023-05-11T17:03:09.741Z,100295.55
2023-05-11T17:05:42.680Z,100294.72
2023-05-11T17:08:15.437Z,100306.13
2023-05-11T17:10:47.861Z,100302.52
2023-05-11T17:13:19.972Z,100304.37
2023-05-11T17:15:53.965Z,100304.72
2023-05-11T17:18:27.276Z,100312.68
2023-05-11T17:20:59.752Z,100306.44
2023-05-11T17:23:32.902Z,100310.80
2023-05-11T17:26:12.641Z,100310.55
2023-05-11T17:28:45.268Z,100312.97
2023-05-11T17:31:17.865Z,100310.23
2023-05-11T17:33:50.229Z,100312.55
2023-05-11T17:36:22.780Z,100320.98
2023-05-11T17:38:55.524Z,100316.75
2023-05-11T17:41:28.651Z,100313.56
2023-05-11T17:44:00.917Z,100323.53
2023-05-11T17:46:34.718Z,100326.17
2023-05-11T17:49:06.976Z,100328.26
2023-05-11T17:51:39.250Z,100324.02
2023-05-11T17:54:11.910Z,100324.63
2023-05-11T17:56:44.485Z,100325.97
2023-05-11T17:59:18.714Z,100329.87
2023-05-11T18:01:51.611Z,100332.06
2023-05-11T18:04:24.068Z,100333.13
2023-05-11T18:06:56.583Z,100334.36
2023-05-11T18:09:29.306Z,100335.51
2023-05-11T18:12:02.778Z,100338.56
2023-05-11T18:14:35.079Z,100335.27
2023-05-11T18:17:08.128Z,100339.03
2023-05-11T18:19:40.587Z,100342.82
2023-05-11T18:22:13.578Z,100343.09
2023-05-11T18:24:45.660Z,100337.16
2023-05-11T18:27:18.948Z,100334.98
2023-05-11T18:29:51.575Z,100337.16
2023-05-11T18:32:24.069Z,100333.23
2023-05-11T18:34:56.567Z,100335.50
2023-05-11T18:37:29.007Z,100342.97
2023-05-11T18:40:02.687Z,100335.48
2023-05-11T18:42:35.366Z,100330.50
2023-05-11T18:45:09.147Z,100337.66
2023-05-11T18:47:43.111Z,100348.53
2023-05-11T18:50:17.346Z,100340.00
2023-05-11T18:52:49.775Z,100340.95
2023-05-11T18:55:22.096Z,100340.95
2023-05-11T18:57:56.074Z,100341.70
2023-05-11T19:00:28.440Z,100340.27
2023-05-11T19:03:00.659Z,100339.70
2023-05-11T19:05:33.264Z,100339.70
2023-05-11T19:08:05.463Z,100323.93
2023-05-11T19:10:39.557Z,100348.10
2023-05-11T19:13:12.864Z,100342.98
2023-05-11T19:15:45.057Z,100348.36
2023-05-11T19:18:17.899Z,100348.45
2023-05-11T19:20:49.874Z,100340.61
2023-05-11T19:23:22.095Z,100316.78
2023-05-11T19:25:54.494Z,100352.55
2023-05-11T19:28:27.317Z,100357.06
2023-05-11T19:31:07.039Z,100351.28
2023-05-11T19:33:39.706Z,100346.09
2023-05-11T19:36:12.661Z,100352.69
2023-05-11T19:38:44.995Z,100356.45
2023-05-11T19:41:17.621Z,100360.78
2023-05-11T19:43:49.790Z,100360.86
2023-05-11T19:46:23.354Z,100359.42
2023-05-11T19:48:55.757Z,100371.96
2023-05-11T19:51:28.040Z,100360.83
2023-05-11T19:54:00.589Z,100355.87
2023-05-11T19:56:34.264Z,100365.94
2023-05-11T19:59:06.929Z,100376.66
2023-05-11T20:01:39.126Z,100370.62
2023-05-11T20:04:12.858Z,100369.02
2023-05-11T20:06:45.137Z,100367.20
2023-05-11T20:09:18.080Z,100373.19
2023-05-11T20:11:51.405Z,100374.80
2023-05-11T20:14:23.634Z,100370.88
2023-05-11T20:16:56.246Z,100372.99
2023-05-11T20:19:28.390Z,100365.40
2023-05-11T20:22:00.918Z,100356.94
2023-05-11T20:24:33.572Z,100356.23
2023-05-11T20:27:07.455Z,100346.98
2023-05-11T20:29:40.633Z,100340.34
2023-05-11T20:32:12.813Z,100339.70
2023-05-11T20:34:44.924Z,100339.70
2023-05-11T20:37:17.224Z,100329.91
2023-05-11T20:39:49.492Z,100329.91
2023-05-11T20:42:21.998Z,100332.73
2023-05-11T20:44:54.660Z,100332.73
2023-05-11T20:47:26.750Z,100331.13
2023-05-11T20:49:58.943Z,100335.63
2023-05-11T20:52:32.085Z,100335.84
2023-05-11T20:55:04.520Z,100337.70
2023-05-11T20:57:35.782Z,100330.99
2023-05-11T21:00:09.079Z,100337.45
2023-05-11T21:02:41.361Z,100340.30
2023-05-11T21:05:13.401Z,100333.09
2023-05-11T21:07:45.664Z,100328.61
2023-05-11T21:10:18.195Z,100333.16
2023-05-11T21:12:50.651Z,100336.66
2023-05-11T21:15:23.009Z,100331.16
2023-05-11T21:17:55.121Z,100330.81
2023-05-11T21:20:27.252Z,100333.02
2023-05-11T21:22:59.424Z,100338.89
2023-05-11T21:25:31.560Z,100338.37
2023-05-11T21:28:05.025Z,100337.00
2023-05-11T21:30:37.343Z,100342.44
2023-05-11T21:33:09.429Z,100345.38
2023-05-11T21:35:41.505Z,100341.45
2023-05-11T21:38:15.306Z,100350.45
2023-05-11T21:40:50.238Z,100348.16
2023-05-11T21:43:22.366Z,100349.09
2023-05-11T21:45:54.555Z,100346.61
2023-05-11T21:48:26.831Z,100341.50
2023-05-11T21:50:59.295Z,100346.09
2023-05-11T21:53:31.555Z,100343.69
2023-05-11T21:56:03.591Z,100349.97
2023-05-11T21:58:35.907Z,100350.23
2023-05-11T22:01:08.517Z,100357.34
2023-05-11T22:03:41.030Z,100353.16
2023-05-11T22:06:13.084Z,100354.41
2023-05-11T22:08:45.587Z,100344.05
2023-05-11T22:11:19.537Z,100345.75
2023-05-11T22:13:52.149Z,100350.23
2023-05-11T22:16:25.717Z,100354.66
2023-05-11T22:18:59.255Z,100351.23
2023-05-11T22:21:31.540Z,100348.61
2023-05-11T22:24:04.357Z,100349.25
2023-05-11T22:26:37.018Z,100354.33
2023-05-11T22:29:10.153Z,100358.58
2023-05-11T22:31:45.921Z,100341.01
2023-05-11T22:34:16.898Z,100345.41
2023-05-11T22:36:49.297Z,100343.57
2023-05-11T22:39:21.296Z,100347.83
2023-05-11T22:41:53.970Z,100352.94
2023-05-11T22:44:27.481Z,100350.05
2023-05-11T22:47:00.008Z,100345.37
2023-05-11T22:49:32.242Z,100348.80
2023-05-11T22:52:04.696Z,100346.92
2023-05-11T22:54:37.640Z,100345.08
2023-05-11T22:57:11.256Z,100345.00
2023-05-11T22:59:43.618Z,100339.66
2023-05-11T23:02:16.429Z,100339.57
2023-05-11T23:04:52.665Z,100341.19
2023-05-11T23:07:24.860Z,100337.53
2023-05-11T23:09:57.425Z,100343.75
2023-05-11T23:12:29.660Z,100346.61
2023-05-11T23:15:02.213Z,100342.36
2023-05-11T23:17:36.375Z,100341.84
2023-05-11T23:20:09.483Z,100345.37
2023-05-11T23:22:42.413Z,100338.75
2023-05-11T23:25:14.701Z,100345.87
2023-05-11T23:27:47.188Z,100349.44
2023-05-11T23:30:19.672Z,100342.55
2023-05-11T23:32:52.403Z,100341.87
2023-05-11T23:35:24.616Z,100339.61
2023-05-11T23:37:56.621Z,100344.68
2023-05-11T23:40:28.680Z,100344.36
2023-05-11T23:43:00.930Z,100348.41
2023-05-11T23:45:33.098Z,100350.39
2023-05-11T23:48:05.785Z,100338.63
2023-05-11T23:50:37.875Z,100341.87
2023-05-11T23:53:09.990Z,100347.59
2023-05-11T23:55:42.188Z,100355.10
2023-05-11T23:58:14.204Z,100350.23
